• Join FlightAware (Why Join?)
  • Login
  • US Flag 
11:42PM EDT


 

Airport Tracker/Info


-or-


 

Live Flight TrackerFlight Track Log ✈ N3521S ✈ 29-Apr-2013 ✈ KVJI - KRIC

Flight Track Log - Related Links

Times and Time Zones

All times are in EDT time to prevent confusion due to time zone crossing. See the N3521S flight status page for this flight to view local times or setup timezone preferences in your user account.

Time Position Orientation Groundspeed Altitude Reporting Facility
EDT Latitude Longitude Course Direction KTS MPH feet Rate Location/Type
07:15PM 36.6703 -81.9500 90° East 150 173 4,900  Level Atlanta Center
07:16PM 36.6778 -81.9008 79° East 150 173 5,700 780 Climbing Atlanta Center
07:17PM 36.6894 -81.8539 73° East 150 173 6,500 720 Climbing Atlanta Center
07:18PM 36.7053 -81.8017 69° East 150 173 7,200 660 Climbing Atlanta Center
07:19PM 36.7147 -81.7494 77° East 157 181 7,900 660 Climbing Atlanta Center
07:20PM 36.7283 -81.6947 73° East 157 181 8,600 540 Climbing Atlanta Center
07:21PM 36.7509 -81.7041 90° East  Level Estimated
07:21PM 36.7417 -81.6400 73° East 162 186 9,000  Level Atlanta Center
07:22PM 36.7572 -81.5800 72° East 168 193 9,000  Level Atlanta Center
07:23PM 36.7728 -81.5172 73° East 181 208 9,000  Level Atlanta Center
07:24PM 36.7878 -81.4467 75° East 186 214 9,000  Level Atlanta Center
07:25PM 36.8117 -81.3864 64° Northeast 186 214 9,000  Level Atlanta Center
07:26PM 36.8394 -81.3231 61° Northeast 196 226 9,000  Level Atlanta Center
07:27PM 36.8547 -81.2578 74° East 196 226 9,000  Level Atlanta Center
07:28PM 36.8761 -81.1869 69° East 196 226 9,100  Climbing Atlanta Center
07:29PM 36.9017 -81.1264 62° Northeast 191 220 9,100  Level Atlanta Center
07:30PM 36.9211 -81.0633 69° East 186 214 9,100  Level Atlanta Center
07:31PM 36.9236 -81.0036 87° East 191 220 9,100  Level Atlanta Center
07:32PM 36.9283 -80.9333 85° East 191 220 9,100  Level Atlanta Center
07:33PM 36.9347 -80.8656 83° East 196 226 9,100  Level Atlanta Center
07:34PM 36.9414 -80.8028 82° East 196 226 9,100  Level Atlanta Center
07:35PM 36.9583 -80.7294 74° East 196 226 9,100  Level Atlanta Center
07:36PM 36.9775 -80.6636 70° East 196 226 9,100 -120 Level Atlanta Center
07:38PM 36.9790 -80.6023 88° East  Level FlightAware Approximate
07:45PM 37.0253 -80.2072 76° East  Level FlightAware Approximate
07:46PM 37.0353 -80.1520 80° East  Level FlightAware Approximate
07:47PM 37.0428 -80.0961 80° East  Level FlightAware Approximate
07:48PM 37.0503 -80.0402 80° East  Level FlightAware Approximate
07:49PM 37.0577 -79.9843 81° East  Level FlightAware Approximate
07:50PM 37.0651 -79.9283 81° East  Level FlightAware Approximate
07:51PM 37.0741 -79.8727 78° East  Level FlightAware Approximate
07:52PM 37.0834 -79.8173 78° East  Level FlightAware Approximate
07:53PM 37.0927 -79.7618 78° East  Level FlightAware Approximate
07:54PM 37.1020 -79.7062 78° East  Level FlightAware Approximate
07:55PM 37.1113 -79.6507 78° East  Level FlightAware Approximate
07:56PM 37.1205 -79.5952 78° East  Level FlightAware Approximate
07:57PM 37.1297 -79.5396 78° East  Level FlightAware Approximate
07:58PM 37.1399 -79.4783 78° East  Level FlightAware Approximate
07:59PM 37.1499 -79.4170 78° East  Level FlightAware Approximate
07:59PM 37.2228 -79.1756 77° East 191 220 7,000  Level Washington Center
08:00PM 37.1611 -79.3560 77° East  Level FlightAware Approximate
08:00PM 37.2331 -79.1108 79° East 197 227 7,000  Level Washington Center
08:01PM 37.1721 -79.2949 77° East  Level FlightAware Approximate
08:01PM 37.2414 -79.0433 81° East 197 227 7,000  Level Washington Center
08:02PM 37.1832 -79.2338 77° East  Level FlightAware Approximate
08:02PM 37.2514 -78.9864 78° East 197 227 7,000  Level Washington Center
08:03PM 37.1942 -79.1728 77° East  Level FlightAware Approximate
08:03PM 37.2636 -78.9217 77° East 197 227 7,000  Level Washington Center
08:04PM 37.2052 -79.1116 77° East  Level FlightAware Approximate
08:04PM 37.2736 -78.8594 79° East 192 221 7,000  Level Washington Center
08:05PM 37.2836 -78.7919 79° East 192 221 7,000  Level Washington Center
08:06PM 37.2939 -78.7194 80° East 192 221 7,000  Level Washington Center
08:07PM 37.3061 -78.6572 76° East 186 214 7,000  Level Washington Center
08:08PM 37.3161 -78.5897 79° East 186 214 7,000  Level Washington Center
08:09PM 37.3261 -78.5247 79° East 186 214 7,000  Level Washington Center
08:10PM 37.3358 -78.4653 78° East 186 214 7,000  Level Washington Center
08:11PM 37.3458 -78.4003 79° East 181 208 7,000  Level Washington Center
08:12PM 37.3556 -78.3328 80° East 181 208 7,000  Level Washington Center
08:13PM 37.3678 -78.2600 78° East 181 208 7,000  Level Washington Center
08:14PM 37.3775 -78.1975 79° East 186 214 7,000  Level Washington Center
08:15PM 37.3853 -78.1297 82° East 186 214 7,000  Level Washington Center
08:16PM 37.3906 -78.0647 84° East 186 214 7,000  Level Washington Center
08:17PM 37.3900 -77.9967 91° East 186 214 7,000  Level Washington Center
08:18PM 37.3892 -77.9286 91° East 186 214 7,000  Level Washington Center
08:19PM 37.3906 -77.8608 89° East 186 214 7,000 -420 Level Washington Center
08:21PM 37.3833 -77.6833 93° East 203 234 5,700 -660 Descending Potomac TRACON
08:22PM 37.3833 -77.6167 90° East 201 231 4,900 -840 Descending Potomac TRACON
08:23PM 37.4000 -77.5333 76° East 200 230 4,000 -840 Descending Potomac TRACON
08:24PM 37.4000 -77.4667 90° East 194 223 3,200 -720 Descending Potomac TRACON
08:25PM 37.4000 -77.4167 90° East 187 215 2,600 -600 Descending Potomac TRACON
08:26PM 37.3833 -77.3500 107° East 184 212 2,100 -360 Descending Potomac TRACON
08:27PM 37.4333 -77.3167 28° Northeast 164 189 1,900 -660 Descending Potomac TRACON
08:28PM 37.4667 -77.3000 22° Northeast 142 163 900 240 Descending Potomac TRACON
08:30PM 37.5000 -77.3167 76° East  Level FlightAware Approximate
08:32PM 37.5167 -77.3333 76° East 14 16 3,400  Level Potomac TRACON
08:34PM 37.5052 -77.3197 142° Southeast  Level Estimated
08:37PM 37.5052 -77.3197 76° East  Level Estimated
08:41PM 37.5000 -77.3167 76° East  Level FlightAware Approximate
08:42PM 37.5052 -77.3197 76° East  Level Estimated
08:43PM 37.5000 -77.3167 76° East  Level FlightAware Approximate